createdAt,value
2022-10-12T00:00:49.734Z,3.30
2022-10-12T00:03:18.118Z,3.93
2022-10-12T00:05:46.098Z,4.20
2022-10-12T00:08:14.198Z,3.90
2022-10-12T00:10:44.870Z,2.40
2022-10-12T00:13:12.822Z,3.07
2022-10-12T00:15:41.750Z,2.07
2022-10-12T00:18:09.816Z,3.33
2022-10-12T00:20:37.879Z,2.80
2022-10-12T00:23:06.138Z,2.60
2022-10-12T00:25:37.712Z,4.10
2022-10-12T00:28:08.130Z,2.40
2022-10-12T00:30:40.187Z,3.07
2022-10-12T00:33:08.163Z,2.93
2022-10-12T00:35:36.146Z,2.87
2022-10-12T00:38:04.137Z,3.57
2022-10-12T00:40:32.100Z,2.73
2022-10-12T00:43:00.027Z,2.83
2022-10-12T00:45:29.460Z,2.83
2022-10-12T00:48:00.832Z,2.97
2022-10-12T00:50:32.259Z,2.67
2022-10-12T00:53:05.086Z,2.37
2022-10-12T00:55:35.935Z,2.40
2022-10-12T00:58:05.831Z,2.93
2022-10-12T01:00:35.462Z,2.30
2022-10-12T01:03:03.842Z,2.53
2022-10-12T01:05:31.862Z,3.50
2022-10-12T01:08:00.678Z,3.10
2022-10-12T01:10:28.672Z,2.97
2022-10-12T01:12:56.647Z,3.03
2022-10-12T01:15:28.403Z,2.83
2022-10-12T01:18:03.969Z,2.80
2022-10-12T01:21:16.600Z,3.97
2022-10-12T01:24:17.328Z,3.30
2022-10-12T01:27:03.013Z,4.03
2022-10-12T01:29:54.912Z,3.50
2022-10-12T01:32:25.429Z,3.30
2022-10-12T01:34:59.929Z,4.20
2022-10-12T01:37:40.613Z,3.93
2022-10-12T01:40:12.855Z,3.80
2022-10-12T01:42:42.768Z,3.40
2022-10-12T01:45:13.905Z,4.60
2022-10-12T01:47:44.439Z,3.00
2022-10-12T01:50:14.039Z,4.63
2022-10-12T01:52:47.681Z,3.97
2022-10-12T01:55:34.865Z,3.63
2022-10-12T01:58:21.304Z,4.37
2022-10-12T02:00:58.649Z,5.50
2022-10-12T02:03:35.828Z,2.77
2022-10-12T02:06:07.953Z,3.63
2022-10-12T02:08:40.851Z,3.80
2022-10-12T02:11:12.025Z,3.33
2022-10-12T02:13:42.767Z,2.40
2022-10-12T02:16:15.593Z,3.07
2022-10-12T02:18:47.628Z,4.53
2022-10-12T02:21:20.091Z,3.47
2022-10-12T02:23:50.655Z,3.90
2022-10-12T02:26:19.002Z,4.03
2022-10-12T02:28:50.603Z,4.40
2022-10-12T02:31:29.280Z,4.80
2022-10-12T02:34:02.479Z,4.67
2022-10-12T02:36:41.382Z,5.73
2022-10-12T02:39:13.828Z,4.13
2022-10-12T02:41:45.034Z,4.70
2022-10-12T02:44:16.091Z,4.87
2022-10-12T02:46:48.237Z,6.47
2022-10-12T02:49:18.426Z,6.20
2022-10-12T02:51:47.088Z,3.97
2022-10-12T02:54:15.644Z,7.27
2022-10-12T02:56:45.456Z,5.20
2022-10-12T02:59:13.623Z,5.00
2022-10-12T03:01:42.542Z,5.70
2022-10-12T03:04:11.850Z,4.93
2022-10-12T03:06:39.804Z,4.80
2022-10-12T03:09:07.825Z,4.60
2022-10-12T03:11:37.617Z,5.30
2022-10-12T03:14:05.688Z,4.17
2022-10-12T03:16:33.653Z,5.83
2022-10-12T03:19:01.605Z,6.60
2022-10-12T03:21:30.929Z,5.90
2022-10-12T03:23:58.990Z,5.60
2022-10-12T03:26:26.940Z,5.47
2022-10-12T03:28:54.975Z,5.83
2022-10-12T03:31:22.948Z,5.63
2022-10-12T03:33:50.927Z,5.13
2022-10-12T03:36:19.220Z,5.87
2022-10-12T03:38:48.543Z,6.17
2022-10-12T03:41:16.474Z,4.77
2022-10-12T03:43:44.418Z,5.50
2022-10-12T03:46:12.347Z,4.60
2022-10-12T03:48:40.307Z,5.00
2022-10-12T03:51:08.250Z,5.83
2022-10-12T03:53:36.227Z,6.10
2022-10-12T03:56:05.874Z,5.27
2022-10-12T03:58:34.395Z,5.27
2022-10-12T04:01:02.412Z,6.63
2022-10-12T04:03:30.377Z,4.80
2022-10-12T04:05:59.739Z,5.17
2022-10-12T04:08:28.468Z,4.90
2022-10-12T04:10:56.428Z,7.10
2022-10-12T04:13:25.891Z,5.77
2022-10-12T04:15:53.812Z,5.17
2022-10-12T04:18:21.765Z,5.93
2022-10-12T04:20:50.475Z,4.43
2022-10-12T04:23:18.417Z,5.00
2022-10-12T04:25:46.371Z,5.03
2022-10-12T04:28:14.394Z,5.90
2022-10-12T04:30:43.773Z,6.07
2022-10-12T04:33:11.736Z,4.90
2022-10-12T04:35:39.673Z,6.57
2022-10-12T04:38:07.985Z,5.63
2022-10-12T04:40:35.935Z,5.87
2022-10-12T04:43:03.868Z,4.83
2022-10-12T04:45:31.824Z,5.83
2022-10-12T04:48:01.129Z,6.20
2022-10-12T04:50:30.169Z,6.20
2022-10-12T04:52:58.407Z,5.93
2022-10-12T04:55:26.614Z,7.77
2022-10-12T04:57:54.539Z,5.57
2022-10-12T05:00:22.673Z,6.30
2022-10-12T05:02:50.804Z,5.43
2022-10-12T05:05:20.103Z,5.20
2022-10-12T05:07:48.058Z,5.67
2022-10-12T05:10:16.154Z,5.13
2022-10-12T05:12:44.212Z,5.87
2022-10-12T05:15:12.633Z,7.10
2022-10-12T05:17:40.758Z,5.40
2022-10-12T05:20:10.587Z,4.73
2022-10-12T05:22:40.196Z,4.47
2022-10-12T05:25:09.559Z,4.80
2022-10-12T05:27:38.938Z,5.93
2022-10-12T05:30:08.971Z,7.70
2022-10-12T05:32:37.168Z,6.20
2022-10-12T05:35:05.780Z,6.10
2022-10-12T05:37:34.652Z,4.43
2022-10-12T05:40:04.709Z,5.80
2022-10-12T05:42:32.829Z,4.13
2022-10-12T05:45:00.761Z,5.67
2022-10-12T05:47:28.800Z,6.73
2022-10-12T05:49:56.738Z,7.37
2022-10-12T05:52:24.900Z,6.00
2022-10-12T05:54:52.840Z,6.47
2022-10-12T05:57:22.207Z,7.40
2022-10-12T05:59:50.160Z,6.20
2022-10-12T06:02:19.176Z,5.13
2022-10-12T06:04:47.193Z,6.00
2022-10-12T06:07:15.118Z,5.73
2022-10-12T06:09:44.748Z,5.80
2022-10-12T06:12:12.964Z,6.67
2022-10-12T06:14:42.313Z,5.80
2022-10-12T06:17:10.392Z,5.20
2022-10-12T06:19:38.359Z,4.43
2022-10-12T06:22:06.445Z,5.47
2022-10-12T06:24:34.389Z,5.90
2022-10-12T06:27:02.329Z,5.83
2022-10-12T06:29:30.253Z,5.30
2022-10-12T06:31:59.568Z,4.20
2022-10-12T06:34:27.513Z,5.20
2022-10-12T06:36:58.238Z,7.00
2022-10-12T06:39:29.527Z,4.50
2022-10-12T06:41:57.459Z,5.73
2022-10-12T06:44:25.412Z,5.70
2022-10-12T06:46:53.446Z,5.00
2022-10-12T06:49:22.771Z,5.97
2022-10-12T06:51:50.868Z,7.47
2022-10-12T06:54:18.785Z,5.13
2022-10-12T06:56:46.740Z,5.60
2022-10-12T06:59:14.789Z,6.10
2022-10-12T07:01:42.780Z,5.70
2022-10-12T07:04:10.928Z,4.50
2022-10-12T07:06:40.199Z,6.07
2022-10-12T07:09:08.479Z,5.63
2022-10-12T07:11:36.474Z,5.70
2022-10-12T07:14:04.446Z,5.70
2022-10-12T07:16:32.467Z,5.23
2022-10-12T07:19:00.504Z,6.70
2022-10-12T07:21:28.431Z,5.77
2022-10-12T07:23:57.749Z,6.67
2022-10-12T07:26:25.683Z,5.93
2022-10-12T07:28:53.704Z,5.30
2022-10-12T07:31:21.688Z,6.00
2022-10-12T07:33:49.632Z,6.00
2022-10-12T07:36:21.695Z,4.57
2022-10-12T07:38:50.160Z,5.30
2022-10-12T07:41:20.144Z,5.87
2022-10-12T07:43:48.522Z,6.33
2022-10-12T07:46:16.518Z,6.10
2022-10-12T07:48:49.112Z,5.93
2022-10-12T07:51:18.645Z,6.10
2022-10-12T07:53:46.697Z,5.57
2022-10-12T07:56:16.139Z,7.37
2022-10-12T07:58:50.013Z,6.40
2022-10-12T08:01:19.049Z,6.37
2022-10-12T08:03:47.101Z,5.40
2022-10-12T08:06:17.247Z,6.63
2022-10-12T08:08:45.726Z,6.63
2022-10-12T08:11:14.189Z,7.03
2022-10-12T08:13:42.799Z,4.47
2022-10-12T08:16:14.220Z,6.90
2022-10-12T08:18:42.846Z,4.20
2022-10-12T08:21:12.700Z,5.23
2022-10-12T08:23:40.911Z,4.03
2022-10-12T08:26:10.969Z,5.20
2022-10-12T08:28:38.960Z,6.40
2022-10-12T08:31:09.098Z,3.93
2022-10-12T08:33:38.547Z,3.97
2022-10-12T08:36:08.145Z,5.53
2022-10-12T08:38:38.830Z,5.43
2022-10-12T08:41:22.079Z,7.77
2022-10-12T08:44:00.112Z,5.77
2022-10-12T08:46:29.802Z,4.43
2022-10-12T08:49:02.856Z,5.17
2022-10-12T08:51:32.792Z,5.40
2022-10-12T08:54:04.672Z,4.80
2022-10-12T08:56:34.795Z,4.73
2022-10-12T08:59:03.815Z,3.87
2022-10-12T09:01:37.364Z,4.63
2022-10-12T09:04:28.429Z,4.03
2022-10-12T09:07:01.715Z,3.93
2022-10-12T09:09:43.977Z,4.50
2022-10-12T09:12:24.978Z,4.63
2022-10-12T09:15:00.389Z,4.30
2022-10-12T09:17:32.107Z,5.80
2022-10-12T09:20:06.289Z,5.37
2022-10-12T09:22:35.956Z,6.00
2022-10-12T09:25:04.629Z,4.70
2022-10-12T09:27:33.274Z,4.43
2022-10-12T09:30:04.745Z,3.70
2022-10-12T09:33:08.291Z,3.70
2022-10-12T09:35:38.387Z,7.20
2022-10-12T09:38:07.712Z,6.60
2022-10-12T09:40:35.756Z,5.10
2022-10-12T09:43:04.881Z,3.43
2022-10-12T09:45:35.940Z,2.67
2022-10-12T09:48:12.348Z,4.90
2022-10-12T09:50:44.400Z,4.70
2022-10-12T09:53:21.312Z,2.80
2022-10-12T09:56:02.345Z,4.10
2022-10-12T09:58:31.319Z,3.37
2022-10-12T10:01:24.397Z,3.47
2022-10-12T10:04:11.811Z,2.77
2022-10-12T10:06:43.105Z,3.23
2022-10-12T10:09:30.372Z,3.17
2022-10-12T10:11:58.963Z,4.13
2022-10-12T10:14:27.107Z,3.63
2022-10-12T10:16:55.812Z,3.03
2022-10-12T10:19:26.483Z,3.30
2022-10-12T10:21:56.585Z,4.33
2022-10-12T10:24:28.957Z,3.30
2022-10-12T10:26:58.957Z,4.10
2022-10-12T10:29:37.496Z,3.70
2022-10-12T10:32:23.651Z,4.07
2022-10-12T10:35:03.155Z,4.77
2022-10-12T10:37:33.527Z,3.00
2022-10-12T10:40:03.097Z,2.80
2022-10-12T10:42:33.515Z,4.70
2022-10-12T10:45:03.533Z,4.20
2022-10-12T10:47:33.557Z,4.50
2022-10-12T10:50:04.046Z,3.27
2022-10-12T10:52:35.823Z,5.07
2022-10-12T10:55:17.051Z,5.63
2022-10-12T10:57:50.328Z,3.40
2022-10-12T11:03:16.200Z,5.90
2022-10-12T11:05:47.589Z,4.20
2022-10-12T11:08:21.770Z,4.83
2022-10-12T11:10:54.217Z,3.13
2022-10-12T11:13:29.369Z,3.70
2022-10-12T11:16:03.616Z,3.53
2022-10-12T11:18:37.902Z,4.50
2022-10-12T11:21:12.665Z,3.87
2022-10-12T11:23:49.161Z,3.40
2022-10-12T11:26:25.640Z,5.00
2022-10-12T11:28:55.728Z,2.97
2022-10-12T11:31:27.900Z,2.90
2022-10-12T11:33:59.351Z,4.73
2022-10-12T11:36:31.418Z,2.73
2022-10-12T11:39:07.033Z,4.60
2022-10-12T11:42:09.326Z,3.80
2022-10-12T11:44:42.144Z,3.67
2022-10-12T11:47:18.977Z,3.97
2022-10-12T11:49:54.700Z,4.77
2022-10-12T11:52:28.806Z,3.97
2022-10-12T11:55:07.952Z,3.97
2022-10-12T11:57:38.729Z,3.40
2022-10-12T12:00:18.177Z,6.07
2022-10-12T12:02:52.109Z,3.87
2022-10-12T12:05:20.248Z,3.67
2022-10-12T12:07:49.958Z,5.03
2022-10-12T12:10:55.518Z,5.43
2022-10-12T12:13:27.137Z,4.67
2022-10-12T12:16:34.407Z,4.60
2022-10-12T12:19:34.314Z,4.07
2022-10-12T12:22:24.432Z,2.90
2022-10-12T12:24:55.424Z,4.10
2022-10-12T12:27:35.006Z,4.73
2022-10-12T12:30:07.129Z,4.80
2022-10-12T12:32:48.696Z,4.80
2022-10-12T12:35:27.559Z,3.60
2022-10-12T12:38:05.675Z,3.90
2022-10-12T12:40:34.296Z,3.63
2022-10-12T12:43:36.453Z,4.57
2022-10-12T12:46:06.338Z,3.73
2022-10-12T12:49:00.900Z,4.17
2022-10-12T12:51:43.325Z,3.93
2022-10-12T12:54:18.847Z,6.20
2022-10-12T12:57:09.732Z,3.30
2022-10-12T13:00:06.532Z,3.60
2022-10-12T13:03:07.901Z,3.83
2022-10-12T13:06:18.056Z,4.90
2022-10-12T13:09:27.074Z,3.50
2022-10-12T13:12:22.444Z,3.50
2022-10-12T13:15:04.155Z,3.93
2022-10-12T13:17:48.363Z,4.17
2022-10-12T13:20:19.875Z,4.83
2022-10-12T13:22:50.397Z,5.20
2022-10-12T13:25:30.568Z,5.93
2022-10-12T13:28:00.360Z,3.20
2022-10-12T13:30:34.189Z,4.90
2022-10-12T13:33:13.711Z,4.27
2022-10-12T13:35:46.457Z,4.30
2022-10-12T13:38:21.726Z,5.80
2022-10-12T13:41:02.258Z,5.27
2022-10-12T13:43:44.914Z,5.97
2022-10-12T13:46:14.674Z,4.20
2022-10-12T13:49:06.200Z,5.93
2022-10-12T13:51:35.450Z,4.80
2022-10-12T13:54:14.754Z,5.07
2022-10-12T13:56:43.258Z,5.00
2022-10-12T13:59:18.779Z,4.30
2022-10-12T14:01:51.782Z,4.97
2022-10-12T14:04:21.304Z,5.17
2022-10-12T14:06:58.620Z,3.50
2022-10-12T14:09:28.258Z,4.07
2022-10-12T14:12:00.545Z,4.80
2022-10-12T14:14:35.355Z,5.20
2022-10-12T14:17:04.400Z,6.37
2022-10-12T14:19:45.011Z,5.00
2022-10-12T14:22:14.701Z,5.17
2022-10-12T14:24:42.747Z,4.50
2022-10-12T14:27:23.532Z,6.23
2022-10-12T14:29:52.843Z,3.90
2022-10-12T14:32:44.080Z,4.90
2022-10-12T14:35:25.086Z,5.03
2022-10-12T14:37:54.853Z,5.40
2022-10-12T14:40:33.892Z,4.33
2022-10-12T14:43:04.766Z,3.87
2022-10-12T14:45:33.835Z,3.80
2022-10-12T14:48:02.786Z,3.90
2022-10-12T14:50:33.434Z,4.83
2022-10-12T14:53:04.658Z,7.90
2022-10-12T14:55:34.484Z,4.93
2022-10-12T14:58:03.742Z,5.87
2022-10-12T15:00:33.768Z,3.90
2022-10-12T15:03:02.118Z,3.73
2022-10-12T15:05:33.116Z,4.73
2022-10-12T15:08:07.130Z,4.80
2022-10-12T15:10:35.560Z,5.60
2022-10-12T15:13:03.519Z,4.00
2022-10-12T15:15:39.141Z,4.90
2022-10-12T15:18:07.376Z,4.10
2022-10-12T15:20:37.473Z,4.93
2022-10-12T15:23:06.155Z,4.40
2022-10-12T15:25:40.891Z,4.83
2022-10-12T15:28:08.869Z,4.73
2022-10-12T15:30:52.150Z,6.50
2022-10-12T15:33:24.824Z,4.70
2022-10-12T15:35:54.177Z,5.13
2022-10-12T15:38:22.519Z,5.37
2022-10-12T15:40:51.801Z,4.63
2022-10-12T15:43:20.068Z,5.93
2022-10-12T15:45:48.050Z,4.53
2022-10-12T15:48:16.231Z,4.97
2022-10-12T15:50:45.720Z,3.53
2022-10-12T15:53:18.222Z,3.90
2022-10-12T15:55:46.183Z,4.30
2022-10-12T15:58:14.264Z,4.97
2022-10-12T16:00:42.613Z,4.47
2022-10-12T16:03:17.441Z,6.13
2022-10-12T16:05:47.291Z,6.80
2022-10-12T16:08:16.584Z,4.93
2022-10-12T16:10:45.549Z,6.30
2022-10-12T16:13:14.544Z,4.87
2022-10-12T16:15:43.309Z,6.00
2022-10-12T16:18:15.318Z,4.80
2022-10-12T16:20:46.677Z,4.40
2022-10-12T16:23:23.404Z,4.30
2022-10-12T16:25:51.732Z,4.87
2022-10-12T16:28:19.866Z,4.30
2022-10-12T16:30:49.026Z,4.33
2022-10-12T16:33:17.292Z,4.37
2022-10-12T16:35:45.596Z,4.07
2022-10-12T16:38:14.737Z,3.37
2022-10-12T16:40:44.086Z,4.60
2022-10-12T16:43:12.091Z,3.47
2022-10-12T16:45:40.010Z,4.93
2022-10-12T16:48:08.180Z,3.43
2022-10-12T16:50:39.919Z,4.33
2022-10-12T16:53:09.026Z,3.93
2022-10-12T16:55:39.507Z,3.77
2022-10-12T16:58:08.812Z,5.10
2022-10-12T17:00:36.891Z,4.60
2022-10-12T17:03:04.997Z,4.47
2022-10-12T17:05:32.948Z,3.90
2022-10-12T17:08:00.937Z,3.83
2022-10-12T17:10:28.857Z,4.00
2022-10-12T17:12:56.808Z,4.70
2022-10-12T17:15:26.091Z,3.70
2022-10-12T17:17:54.248Z,3.57
2022-10-12T17:20:22.185Z,3.07
2022-10-12T17:22:50.109Z,3.47
2022-10-12T17:25:18.087Z,3.63
2022-10-12T17:27:46.000Z,4.07
2022-10-12T17:30:14.195Z,4.50
2022-10-12T17:32:43.817Z,3.53
2022-10-12T17:35:11.860Z,4.47
2022-10-12T17:37:39.863Z,4.37
2022-10-12T17:40:10.643Z,2.50
2022-10-12T17:42:38.653Z,2.80
2022-10-12T17:45:07.701Z,4.20
2022-10-12T17:47:35.622Z,4.73
2022-10-12T17:50:05.645Z,4.43
2022-10-12T17:52:37.665Z,3.03
2022-10-12T17:55:06.293Z,5.23
2022-10-12T17:57:35.524Z,3.97
2022-10-12T18:00:03.641Z,5.80
2022-10-12T18:02:31.579Z,4.37
2022-10-12T18:04:59.511Z,4.90
2022-10-12T18:07:28.838Z,4.17
2022-10-12T18:12:29.599Z,3.40
2022-10-12T18:14:57.677Z,4.60
2022-10-12T18:17:25.749Z,3.83
2022-10-12T18:19:53.724Z,3.57
2022-10-12T18:22:21.687Z,3.13
2022-10-12T18:24:50.992Z,3.67
2022-10-12T18:27:18.933Z,5.20
2022-10-12T18:29:47.189Z,2.87
2022-10-12T18:32:15.309Z,2.70
2022-10-12T18:34:43.832Z,3.30
2022-10-12T18:37:11.765Z,4.70
2022-10-12T18:39:40.153Z,4.53
2022-10-12T18:42:09.480Z,3.13
2022-10-12T18:44:37.750Z,1.83
2022-10-12T18:47:05.732Z,3.70
2022-10-12T18:49:33.737Z,3.70
2022-10-12T18:52:01.675Z,4.33
2022-10-12T18:54:29.708Z,1.83
2022-10-12T18:56:57.622Z,2.83
2022-10-12T18:59:26.990Z,2.57
2022-10-12T19:01:54.940Z,4.17
2022-10-12T19:04:22.908Z,3.93
2022-10-12T19:06:55.552Z,5.10
2022-10-12T19:09:25.671Z,3.83
2022-10-12T19:11:53.661Z,3.10
2022-10-12T19:14:21.672Z,2.43
2022-10-12T19:16:51.951Z,3.50
2022-10-12T19:19:21.626Z,2.50
2022-10-12T19:21:50.132Z,3.33
2022-10-12T19:24:18.956Z,2.10
2022-10-12T19:26:47.168Z,2.30
2022-10-12T19:29:15.897Z,2.70
2022-10-12T19:31:46.326Z,2.63
2022-10-12T19:34:18.121Z,2.23
2022-10-12T19:36:47.003Z,2.53
2022-10-12T19:39:18.012Z,3.23
2022-10-12T19:41:46.972Z,2.00
2022-10-12T19:44:15.327Z,2.30
2022-10-12T19:46:47.230Z,2.63
2022-10-12T19:49:18.000Z,2.30
2022-10-12T19:51:46.292Z,3.10
2022-10-12T19:54:17.844Z,2.50
2022-10-12T19:56:46.282Z,2.10
2022-10-12T19:59:14.521Z,2.20
2022-10-12T20:01:47.683Z,3.70
2022-10-12T20:04:17.240Z,2.33
2022-10-12T20:06:45.203Z,4.10
2022-10-12T20:09:13.151Z,3.43
2022-10-12T20:11:41.147Z,1.93
2022-10-12T20:14:09.092Z,1.80
2022-10-12T20:16:37.881Z,2.20
2022-10-12T20:19:06.754Z,1.40
2022-10-12T20:21:37.449Z,1.67
2022-10-12T20:24:05.748Z,2.20
2022-10-12T20:26:33.676Z,1.97
2022-10-12T20:29:01.899Z,2.53
2022-10-12T20:31:29.876Z,2.40
2022-10-12T20:33:58.806Z,2.77
2022-10-12T20:36:28.420Z,2.50
2022-10-12T20:38:58.469Z,1.90
2022-10-12T20:41:27.595Z,1.33
2022-10-12T20:43:56.594Z,2.47
2022-10-12T20:46:25.143Z,2.10
2022-10-12T20:48:58.617Z,2.60
2022-10-12T20:51:28.924Z,2.90
2022-10-12T20:54:00.805Z,1.73
2022-10-12T20:56:29.195Z,1.97
2022-10-12T20:58:57.423Z,2.00
2022-10-12T21:01:26.912Z,2.50
2022-10-12T21:03:55.079Z,2.50
2022-10-12T21:06:23.553Z,2.13
2022-10-12T21:08:52.330Z,1.70
2022-10-12T21:11:22.251Z,1.33
2022-10-12T21:13:50.710Z,2.00
2022-10-12T21:16:19.251Z,1.57
2022-10-12T21:18:47.355Z,2.30
2022-10-12T21:21:17.329Z,1.87
2022-10-12T21:23:51.550Z,1.50
2022-10-12T21:26:22.718Z,2.00
2022-10-12T21:28:51.257Z,1.77
2022-10-12T21:31:20.488Z,2.63
2022-10-12T21:33:48.786Z,1.60
2022-10-12T21:36:18.567Z,2.20
2022-10-12T21:38:47.004Z,2.37
2022-10-12T21:41:16.468Z,2.00
2022-10-12T21:43:45.847Z,2.13
2022-10-12T21:46:15.368Z,2.13
2022-10-12T21:48:43.573Z,2.23
2022-10-12T21:51:11.837Z,2.20
2022-10-12T21:53:40.459Z,2.37
2022-10-12T21:56:08.976Z,2.03
2022-10-12T21:58:36.997Z,1.30
2022-10-12T22:01:08.537Z,2.60
2022-10-12T22:03:36.867Z,2.30
2022-10-12T22:06:05.388Z,1.63
2022-10-12T22:08:33.614Z,1.20
2022-10-12T22:11:05.927Z,1.83
2022-10-12T22:13:34.093Z,2.50
2022-10-12T22:16:03.369Z,2.33
2022-10-12T22:18:32.930Z,2.07
2022-10-12T22:21:04.014Z,2.50
2022-10-12T22:23:32.286Z,2.13
2022-10-12T22:26:02.181Z,2.00
2022-10-12T22:28:30.677Z,2.90
2022-10-12T22:30:58.705Z,2.90
2022-10-12T22:33:27.117Z,2.50
2022-10-12T22:35:57.693Z,2.50
2022-10-12T22:38:26.664Z,2.13
2022-10-12T22:40:58.196Z,2.70
2022-10-12T22:43:26.616Z,3.13
2022-10-12T22:45:55.532Z,2.10
2022-10-12T22:48:24.464Z,1.70
2022-10-12T22:50:53.099Z,2.40
2022-10-12T22:53:23.855Z,2.70
2022-10-12T22:55:58.461Z,2.00
2022-10-12T22:58:26.510Z,2.17
2022-10-12T23:01:00.845Z,3.90
2022-10-12T23:03:30.574Z,3.00
2022-10-12T23:05:58.876Z,2.10
2022-10-12T23:08:29.016Z,4.30
2022-10-12T23:11:04.740Z,3.10
2022-10-12T23:13:33.400Z,3.53
2022-10-12T23:16:05.193Z,2.97
2022-10-12T23:18:33.434Z,3.27
2022-10-12T23:21:01.468Z,3.20
2022-10-12T23:23:30.793Z,3.43
2022-10-12T23:26:02.655Z,2.40
2022-10-12T23:28:30.873Z,2.63
2022-10-12T23:30:58.908Z,3.20
2022-10-12T23:33:26.854Z,4.50
2022-10-12T23:35:58.618Z,2.00
2022-10-12T23:38:28.856Z,4.00
2022-10-12T23:40:58.462Z,3.90
2022-10-12T23:43:27.142Z,4.20
2022-10-12T23:45:55.108Z,3.47
2022-10-12T23:48:23.614Z,3.60
2022-10-12T23:50:51.850Z,2.87
2022-10-12T23:53:20.861Z,3.67
2022-10-12T23:55:49.034Z,2.13
2022-10-12T23:58:18.769Z,2.97
